Etusivu
METAR-TAF:

METAR-TAF

Lentoasemat :

Odense, Tanska

Leveyspiiri: 55-29N, Pituuspiiri: 010-20E, korkeus merenpinnasta: 17 m

Tämänhetkinen sää

Tämä raportti tehtiin 13 tuntia ja 55 minuuttia sitten, kello 14.50 UTC
Tuuli 11 kn lounaasta
Lämpötila 22°C
Kosteus 78%
Ilmanpaine 1024 hPa
Näkyvyys 10 km tai enemmän
Muutamia pilviä 2900 ft:n korkeudessa
Hajanaisia pilviä 3900 ft:n korkeudessa

METAR: EKOD 231450Z 23011KT 9999 FEW029 SCT039 22/18 Q1024

Aika: 06:45 (04:45 UTC)

Sääennuste

Tämä raportti tehtiin 16 tuntia ja 51 minuuttia sitten, kello 11.54 UTC
Ennuste voimassa 23. päivästä klo 12 UTC - 23. päivään klo 17 UTC
Tuuli 12 kn lännestä/lounaasta
Näkyvyys 10 km tai enemmän
Muutamia pilviä 4000 ft:n korkeudessa

TAF: EKOD 231154Z 2312/2317 25012KT 9999 FEW040

Säähavainnot ja -ennusteet yli 4000 lentoasemalta (METAR- ja TAF-raportit).

Käytössä olevat sääasemat on merkitty karttaan keltaisilla ja punaisilla pisteillä.

Aseta hiiri pisteen päälle nähdäksesi sääaseman nimen.

Klikkaa sitten nähdäksesi säähavainnot ja -ennusteet.

Kartan vaihtaminen: klikkaa mustalla rastilla varustettuja vihreitä pisteitä, niin voit zoomata sisään; viivalla varustettua vihreää pistettä, niin voit zoomata ulos tai vihreitä nuolia, niin pääset viereisille kartoille.


METAR-TAF: